GW1515 Weather Reports


Display with metric or nautical units.
time (UTC)temp
F
wind
direction
speed
MPH
gust
MPH
rain 1hr
in
rain 24hr
in
rain mn
in
humidity
%
barometer
mb
20240228051044 53 253 3.0 18.0 0.00 0.08 0.08 87 991.1
20240228050544 54 269 5.0 11.0 0.00 0.08 0.08 86 990.8
20240228050043 55 258 22.0 22.0 0.00 0.08 0.08 84 990.5
20240228045542 55 233 5.0 15.0 0.00 0.08 0.08 84 990.5
20240228045041 57 248 4.0 20.0 0.00 0.08 0.08 81 990.6
20240228044540 56 274 11.0 17.0 0.00 0.08 0.08 83 990.5
20240228044040 55 247 4.0 8.0 0.00 0.08 0.08 89 990.2
20240228043539 55 220 2.0 4.0 0.00 0.08 0.08 92 990.0
20240228043038 54 228 2.0 3.0 0.00 0.08 0.08 92 990.2
20240228042537 54 240 1.0 3.0 0.00 0.08 0.08 92 990.4
20240228042035 55 239 3.0 3.0 0.00 0.08 0.08 92 990.0
20240228041535 54 207 2.0 2.0 0.00 0.08 0.08 92 989.7
20240228041035 55 244 0.0 2.0 0.00 0.08 0.08 91 989.6
20240228040533 55 267 1.0 2.0 0.00 0.08 0.08 90 989.6
20240228040031 55 278 1.0 1.0 0.00 0.08 0.08 89 989.7
20240228035530 56 113 0.0 2.0 0.00 0.08 0.08 87 989.7
20240228035029 57 97 2.0 3.0 0.00 0.08 0.08 86 989.6
20240228034530 57 88 2.0 3.0 0.00 0.08 0.08 85 989.6
20240228034024 57 104 2.0 4.0 0.00 0.08 0.08 85 989.8
20240228033523 57 130 2.0 4.0 0.00 0.08 0.08 84 989.9
20240228033023 58 108 0.0 2.0 0.00 0.08 0.08 83 989.8
20240228032522 58 142 3.0 4.0 0.00 0.08 0.08 83 990.1
20240228032020 58 138 1.0 3.0 0.00 0.08 0.08 83 990.1
20240228031518 58 25 2.0 3.0 0.00 0.08 0.08 85 990.1
20240228031018 59 292 4.0 5.0 0.00 0.08 0.08 84 990.2
20240228030517 59 350 5.0 7.0 0.00 0.08 0.08 84 990.1
20240228030015 59 355 2.0 3.0 0.00 0.08 0.08 85 990.2
20240228025515 60 117 0.0 3.0 0.00 0.08 0.08 84 990.0
20240228025015 61 319 2.0 13.0 0.00 0.08 0.08 80 989.9
20240228024514 63 272 6.0 9.0 0.00 0.08 0.08 72 989.8
20240228024013 64 293 5.0 17.0 0.00 0.08 0.08 69 989.8
20240228023513 65 293 12.0 21.0 0.09 0.08 0.08 64 989.4
20240228023012 65 274 6.0 11.0 0.26 0.08 0.08 68 989.0
20240228022510 65 308 5.0 29.0 0.28 0.05 0.05 66 988.9
20240228022009 64 327 8.0 12.0 0.18 0.03 0.03 86 988.7
20240228021507 65 115 11.0 21.0 0.07 0.01 0.01 82 988.2
20240228021007 66 171 8.0 24.0 0.00 0.00 0.00 79 988.6
20240228020505 65 169 9.0 16.0 0.00 0.00 0.00 80 989.1
20240228020005 65 151 15.0 19.0 0.00 0.00 0.00 80 988.9
20240228015504 65 137 9.0 21.0 0.00 0.00 0.00 80 988.8
20240228015003 65 128 5.0 20.0 0.00 0.00 0.00 80 988.8
20240228014502 65 163 8.0 20.0 0.00 0.00 0.00 80 989.2
20240228014000 66 170 9.0 20.0 0.00 0.00 0.00 79 989.6
20240228013459 66 148 15.0 19.0 0.00 0.00 0.00 79 990.0
20240228012958 66 149 9.0 14.0 0.00 0.00 0.00 79 990.2
20240228012456 66 189 11.0 19.0 0.00 0.00 0.00 79 990.6
20240228011954 66 154 9.0 15.0 0.00 0.00 0.00 79 990.6
20240228011453 66 161 8.0 20.0 0.00 0.00 0.00 79 990.5
20240228010953 66 168 6.0 26.0 0.00 0.00 0.00 79 990.0
20240228010452 66 143 7.0 22.0 0.00 0.00 0.00 79 990.6
20240228005950 66 161 4.0 15.0 0.00 0.00 0.00 79 990.5
20240228005448 66 135 9.0 24.0 0.00 0.00 0.00 80 990.1
20240228004947 66 142 9.0 19.0 0.00 0.00 0.00 80 990.4
20240228004446 66 135 7.0 16.0 0.00 0.00 0.00 80 990.5
20240228003945 66 148 11.0 19.0 0.00 0.00 0.00 80 990.6
20240228003444 66 156 9.0 13.0 0.00 0.00 0.00 81 990.2
20240228002942 66 145 15.0 16.0 0.00 0.00 0.00 81 990.1
20240228002441 66 146 9.0 17.0 0.00 0.00 0.00 81 990.2
20240228001940 66 150 9.0 15.0 0.00 0.00 0.00 81 990.0
20240228001439 66 128 8.0 19.0 0.00 0.00 0.00 81 990.4
20240228000938 66 143 18.0 18.0 0.00 0.00 0.00 81 990.2
20240228000436 66 129 17.0 19.0 0.00 0.00 0.00 81 990.4
20240227235935 66 139 12.0 18.0 0.00 0.00 0.00 81 990.7
20240227235433 66 149 7.0 22.0 0.00 0.00 0.00 80 990.8
20240227234932 67 156 5.0 17.0 0.00 0.00 0.00 80 991.0
20240227234430 67 132 7.0 15.0 0.00 0.00 0.00 80 990.9
20240227233928 67 158 10.0 18.0 0.00 0.00 0.00 80 991.5
20240227233426 67 170 3.0 11.0 0.00 0.00 0.00 79 991.5
20240227232926 67 135 12.0 16.0 0.00 0.00 0.00 79 991.5
20240227232426 67 147 12.0 14.0 0.00 0.00 0.00 78 991.7
20240227231926 68 169 5.0 14.0 0.00 0.00 0.00 78 991.8
20240227231425 67 136 8.0 11.0 0.00 0.00 0.00 78 992.0
20240227230925 68 145 5.0 17.0 0.00 0.00 0.00 78 991.9
20240227230425 68 148 5.0 10.0 0.00 0.00 0.00 78 991.9
20240227225923 68 159 5.0 11.0 0.00 0.00 0.00 78 992.0
20240227225421 68 124 5.0 12.0 0.00 0.00 0.00 77 991.9
20240227224921 68 153 6.0 6.0 0.00 0.00 0.00 77 992.0
20240227224419 68 143 6.0 11.0 0.00 0.00 0.00 77 992.0
20240227223917 68 151 6.0 11.0 0.00 0.00 0.00 77 992.0
20240227223417 68 132 6.0 12.0 0.00 0.00 0.00 77 992.0
20240227222915 68 171 8.0 9.0 0.00 0.00 0.00 77 991.9
20240227222414 68 148 2.0 11.0 0.00 0.00 0.00 77 992.0
20240227221914 68 165 3.0 11.0 0.00 0.00 0.00 77 992.2
20240227221413 68 200 5.0 9.0 0.00 0.00 0.00 76 992.2
20240227220912 68 165 5.0 11.0 0.00 0.00 0.00 76 992.3
20240227220410 68 169 11.0 12.0 0.00 0.00 0.00 76 992.3
20240227215910 68 179 7.0 15.0 0.00 0.00 0.00 76 992.4
20240227215409 68 182 5.0 15.0 0.00 0.00 0.00 76 992.5
20240227214909 68 179 7.0 18.0 0.00 0.00 0.00 76 992.3
20240227214408 68 158 5.0 18.0 0.00 0.00 0.00 75 992.5
20240227213908 68 153 10.0 21.0 0.00 0.00 0.00 75 992.4
20240227213407 69 168 5.0 9.0 0.00 0.00 0.00 74 992.5
20240227212905 69 171 7.0 12.0 0.00 0.00 0.00 73 992.5
20240227212405 69 169 5.0 11.0 0.00 0.00 0.00 74 992.4
20240227211903 68 178 11.0 15.0 0.00 0.00 0.00 74 992.4
20240227211401 69 180 5.0 12.0 0.00 0.00 0.00 74 992.4
20240227210901 69 200 2.0 11.0 0.00 0.00 0.00 74 992.5
20240227210400 69 190 4.0 18.0 0.00 0.00 0.00 74 992.6
20240227205859 69 172 4.0 15.0 0.00 0.00 0.00 73 992.5
20240227205359 69 168 8.0 16.0 0.00 0.00 0.00 72 992.6
20240227204857 70 166 12.0 12.0 0.00 0.00 0.00 70 992.5
20240227204355 70 209 5.0 14.0 0.00 0.00 0.00 70 992.7
20240227203855 71 201 12.0 19.0 0.00 0.00 0.00 69 992.6
20240227203355 70 213 5.0 17.0 0.00 0.00 0.00 70 992.5
20240227202854 70 189 6.0 13.0 0.00 0.00 0.00 71 992.7
20240227202353 70 207 4.0 18.0 0.00 0.00 0.00 71 992.8
20240227201853 71 155 9.0 17.0 0.00 0.00 0.00 69 992.9
20240227201352 71 219 8.0 13.0 0.00 0.00 0.00 70 992.9
20240227200852 69 157 4.0 15.0 0.00 0.00 0.00 72 992.9
20240227200352 69 196 5.0 15.0 0.00 0.00 0.00 72 993.0
20240227195851 69 201 6.0 16.0 0.00 0.00 0.00 72 993.1
20240227195349 69 210 5.0 17.0 0.00 0.00 0.00 71 993.2
20240227194848 69 164 8.0 16.0 0.00 0.00 0.00 71 993.3
20240227194348 70 156 9.0 19.0 0.00 0.00 0.00 71 993.0
20240227193847 71 207 7.0 16.0 0.00 0.00 0.00 70 993.2
20240227193345 71 212 4.0 13.0 0.00 0.00 0.00 68 993.5
20240227192843 71 189 6.0 14.0 0.00 0.00 0.00 68 993.4
20240227192342 71 163 13.0 17.0 0.00 0.00 0.00 69 993.7
20240227191841 71 168 5.0 19.0 0.00 0.00 0.00 69 993.5
20240227191341 71 177 3.0 19.0 0.00 0.00 0.00 69 993.6
20240227190840 71 190 7.0 15.0 0.00 0.00 0.00 70 993.7
20240227190340 70 189 12.0 15.0 0.00 0.00 0.00 70 993.9
20240227185839 70 143 11.0 19.0 0.00 0.00 0.00 71 993.8
20240227185337 69 195 11.0 16.0 0.00 0.00 0.00 71 993.8
20240227184837 70 212 7.0 19.0 0.00 0.00 0.00 71 993.9
20240227184337 71 205 4.0 14.0 0.00 0.00 0.00 70 994.1
20240227183837 70 173 13.0 17.0 0.00 0.00 0.00 71 994.2
20240227183334 69 178 5.0 14.0 0.00 0.00 0.00 71 994.1
20240227182833 68 179 7.0 17.0 0.00 0.00 0.00 73 994.5
20240227182333 69 225 13.0 21.0 0.00 0.00 0.00 72 994.6
20240227181832 69 173 4.0 16.0 0.00 0.00 0.00 72 994.4
20240227181331 68 192 14.0 19.0 0.00 0.00 0.00 73 994.6
20240227180830 68 216 11.0 25.0 0.00 0.00 0.00 74 994.7
20240227180328 68 174 6.0 22.0 0.00 0.00 0.00 74 994.9
20240227175826 67 179 10.0 27.0 0.00 0.00 0.00 75 995.0
20240227175325 68 213 13.0 22.0 0.00 0.00 0.00 74 995.2
20240227174824 67 204 8.0 22.0 0.00 0.00 0.00 75 995.5
20240227174323 66 152 9.0 17.0 0.00 0.00 0.00 77 995.3
20240227173822 66 211 5.0 17.0 0.00 0.00 0.00 77 995.4
20240227173321 66 182 16.0 21.0 0.00 0.00 0.00 77 995.7
20240227172819 65 199 9.0 22.0 0.00 0.00 0.00 77 995.6
20240227172316 65 198 8.0 19.0 0.00 0.00 0.00 79 995.6
20240227171815 65 190 8.0 16.0 0.00 0.00 0.00 78 995.5
20240227171314 65 189 9.0 22.0 0.00 0.00 0.00 79 995.7
20240227170813 65 198 6.0 14.0 0.00 0.00 0.00 79 995.7
20240227170313 64 208 4.0 16.0 0.00 0.00 0.00 80 995.6
20240227165813 64 157 10.0 17.0 0.00 0.00 0.00 80 995.7
20240227165312 64 213 15.0 20.0 0.00 0.00 0.00 79 995.7
20240227164812 63 222 6.0 18.0 0.00 0.00 0.00 81 995.8
20240227164310 63 176 7.0 19.0 0.00 0.00 0.00 81 995.5
20240227163809 64 213 6.0 13.0 0.00 0.00 0.00 81 995.6
20240227163307 63 209 5.0 12.0 0.00 0.00 0.00 82 995.7
20240227162805 64 205 15.0 17.0 0.00 0.00 0.00 81 995.8
20240227162305 62 215 8.0 15.0 0.00 0.00 0.00 84 995.8
20240227161801 62 213 11.0 16.0 0.00 0.00 0.00 85 995.8
20240227161300 61 214 12.0 21.0 0.00 0.00 0.00 86 995.8
20240227160757 61 176 9.0 22.0 0.00 0.00 0.00 87 995.6
20240227160257 61 201 11.0 22.0 0.00 0.00 0.00 87 995.6
20240227155756 61 185 12.0 23.0 0.00 0.00 0.00 86 995.5
20240227155256 60 183 4.0 16.0 0.00 0.00 0.00 89 995.7
20240227154754 60 172 8.0 17.0 0.00 0.00 0.00 90 995.7
20240227154253 59 184 11.0 20.0 0.00 0.00 0.00 90 995.7
20240227153751 59 197 9.0 24.0 0.00 0.00 0.00 90 995.8
20240227153250 59 184 6.0 24.0 0.00 0.00 0.00 91 995.6
20240227152748 59 178 7.0 22.0 0.00 0.00 0.00 91 995.8
20240227152247 59 194 9.0 23.0 0.00 0.00 0.00 90 995.7
20240227151747 59 169 10.0 22.0 0.00 0.00 0.00 91 995.6
20240227151246 59 195 6.0 22.0 0.00 0.00 0.00 92 995.7
20240227150746 58 158 7.0 14.0 0.00 0.00 0.00 95 995.8
20240227150246 57 214 14.0 19.0 0.00 0.00 0.00 96 995.9
20240227145744 56 205 6.0 22.0 0.00 0.00 0.00 97 996.1
20240227145242 56 236 9.0 14.0 0.00 0.00 0.00 97 995.9
20240227144742 56 174 8.0 15.0 0.00 0.00 0.00 98 996.0
20240227144238 56 200 6.0 19.0 0.00 0.00 0.00 98 996.3
20240227143736 55 208 9.0 19.0 0.00 0.00 0.00 98 996.1
20240227143235 55 167 13.0 19.0 0.00 0.00 0.00 98 996.1
20240227142733 55 214 10.0 17.0 0.00 0.00 0.00 98 996.0
20240227142233 55 205 4.0 26.0 0.00 0.00 0.00 98 996.0
20240227141731 55 183 6.0 18.0 0.00 0.00 0.00 98 996.3
20240227141230 55 172 7.0 16.0 0.00 0.00 0.00 99 996.2
20240227140728 55 167 7.0 16.0 0.00 0.00 0.00 99 995.8
20240227140227 55 189 10.0 18.0 0.00 0.00 0.00 99 995.8
20240227135727 55 180 20.0 20.0 0.00 0.00 0.00 99 995.4
20240227135225 55 155 14.0 19.0 0.00 0.00 0.00 99 995.8
20240227134724 55 179 11.0 18.0 0.00 0.00 0.00 99 995.6
20240227134223 55 186 4.0 17.0 0.00 0.00 0.00 99 995.7
20240227133722 55 201 4.0 18.0 0.00 0.00 0.00 99 996.0
20240227133221 54 191 15.0 29.0 0.00 0.00 0.00 99 995.6
20240227132720 54 163 6.0 22.0 0.00 0.00 0.00 99 995.7
20240227132219 54 160 3.0 15.0 0.00 0.00 0.00 99 995.6
20240227131719 54 170 8.0 20.0 0.00 0.00 0.00 99 995.7
20240227131218 54 170 8.0 19.0 0.00 0.00 0.00 99 995.7
20240227130718 54 195 8.0 20.0 0.00 0.00 0.00 98 995.6
20240227130217 54 154 11.0 24.0 0.00 0.00 0.00 98 995.5
20240227125715 53 187 4.0 13.0 0.00 0.00 0.00 98 995.8
20240227125214 53 192 6.0 14.0 0.00 0.00 0.00 98 995.6
20240227124714 53 176 15.0 18.0 0.00 0.00 0.00 98 995.5
20240227124212 53 141 5.0 13.0 0.00 0.00 0.00 98 995.7
20240227123710 53 187 3.0 15.0 0.00 0.00 0.00 98 995.5
20240227123209 53 190 11.0 13.0 0.00 0.00 0.00 98 995.7
20240227122708 53 162 7.0 13.0 0.00 0.00 0.00 98 995.9
20240227122207 53 187 5.0 14.0 0.00 0.00 0.00 98 995.7
20240227121706 53 139 4.0 15.0 0.00 0.00 0.00 98 995.5
20240227121204 53 186 6.0 16.0 0.00 0.00 0.00 98 995.7
20240227120704 53 161 8.0 14.0 0.00 0.00 0.00 98 995.9
20240227120201 53 167 4.0 10.0 0.00 0.00 0.00 98 996.0
20240227115700 53 179 3.0 9.0 0.00 0.00 0.00 97 996.1
20240227115158 53 166 8.0 13.0 0.00 0.00 0.00 98 996.0
20240227114657 53 173 7.0 10.0 0.00 0.00 0.00 97 996.1
20240227114156 53 191 8.0 13.0 0.00 0.00 0.00 97 996.1
20240227113655 53 195 7.0 14.0 0.00 0.00 0.00 97 996.2
20240227113153 53 174 3.0 11.0 0.00 0.00 0.00 97 996.3
20240227112653 53 203 7.0 10.0 0.00 0.00 0.00 97 996.3
20240227112152 53 204 9.0 16.0 0.00 0.00 0.00 97 996.1
20240227111652 53 170 7.0 13.0 0.00 0.00 0.00 97 996.4
20240227111151 53 184 7.0 18.0 0.00 0.00 0.00 97 996.4
20240227110649 53 206 5.0 13.0 0.00 0.00 0.00 97 996.5
20240227110148 53 177 10.0 14.0 0.00 0.00 0.00 96 996.4
20240227105648 53 175 10.0 10.0 0.00 0.00 0.00 96 996.3
20240227105146 53 219 6.0 9.0 0.00 0.00 0.00 96 996.5
20240227104645 54 214 6.0 13.0 0.00 0.00 0.00 96 996.3
20240227104144 54 180 7.0 10.0 0.00 0.00 0.00 96 996.6
20240227103644 54 181 7.0 12.0 0.00 0.00 0.00 96 996.6
20240227103141 54 168 3.0 16.0 0.00 0.00 0.00 95 996.6
20240227102639 54 172 4.0 15.0 0.00 0.00 0.00 95 996.8
20240227102138 54 197 5.0 16.0 0.00 0.00 0.00 95 996.5
20240227101637 54 203 5.0 15.0 0.00 0.00 0.00 95 996.7
20240227101137 54 201 6.0 13.0 0.00 0.00 0.00 95 996.5
20240227100636 54 177 5.0 11.0 0.00 0.00 0.00 95 996.6
20240227100134 54 185 5.0 12.0 0.00 0.00 0.00 94 996.5
20240227095633 55 175 7.0 10.0 0.00 0.00 0.00 94 996.8
20240227095132 55 194 4.0 15.0 0.00 0.00 0.00 94 996.7
20240227094631 55 169 7.0 14.0 0.00 0.00 0.00 94 996.7
20240227094130 55 190 9.0 14.0 0.00 0.00 0.00 93 996.8
20240227093629 55 185 4.0 13.0 0.00 0.00 0.00 93 997.2
20240227093127 55 189 6.0 13.0 0.00 0.00 0.00 93 996.7
20240227092626 55 184 4.0 13.0 0.00 0.00 0.00 93 997.1
20240227092125 55 121 3.0 9.0 0.00 0.00 0.00 93 997.2
20240227091623 55 172 4.0 11.0 0.00 0.00 0.00 93 996.9
20240227091122 55 190 4.0 10.0 0.00 0.00 0.00 92 997.2
20240227090622 55 184 8.0 12.0 0.00 0.00 0.00 92 997.1
20240227090122 55 203 7.0 16.0 0.00 0.00 0.00 92 997.2
20240227085621 55 211 6.0 13.0 0.00 0.00 0.00 92 997.1
20240227085120 55 192 6.0 11.0 0.00 0.00 0.00 92 997.3
20240227084619 56 197 3.0 11.0 0.00 0.00 0.00 92 997.1
20240227084117 56 175 5.0 18.0 0.00 0.00 0.00 91 997.3
20240227083617 56 194 7.0 11.0 0.00 0.00 0.00 91 997.3
20240227083116 56 207 4.0 15.0 0.00 0.00 0.00 91 997.4
20240227082615 56 211 3.0 16.0 0.00 0.00 0.00 91 997.4
20240227082114 56 183 7.0 13.0 0.00 0.00 0.00 91 997.4
20240227081613 56 202 7.0 15.0 0.00 0.00 0.00 90 997.3
20240227081111 56 213 8.0 15.0 0.00 0.00 0.00 90 997.6
20240227080610 56 186 11.0 11.0 0.00 0.00 0.00 90 997.4
20240227080109 57 189 9.0 12.0 0.00 0.00 0.00 90 997.6
20240227075607 57 187 5.0 17.0 0.00 0.00 0.00 89 997.5
20240227075105 57 208 5.0 14.0 0.00 0.00 0.00 89 997.5
20240227074604 57 181 6.0 11.0 0.00 0.00 0.00 89 997.6
20240227074104 57 222 7.0 18.0 0.00 0.00 0.00 89 997.5
20240227073605 57 192 6.0 12.0 0.00 0.00 0.00 89 997.7
20240227073103 57 210 9.0 9.0 0.00 0.00 0.00 89 997.6
20240227072602 57 194 8.0 15.0 0.00 0.00 0.00 88 997.7
20240227072102 57 158 4.0 16.0 0.00 0.00 0.00 88 997.8
20240227071600 57 203 3.0 16.0 0.00 0.00 0.00 87 997.8
20240227071100 57 175 7.0 12.0 0.00 0.00 0.00 87 997.9
20240227070559 57 191 11.0 15.0 0.00 0.00 0.00 87 997.8
20240227070058 58 214 16.0 19.0 0.00 0.00 0.00 87 997.6
20240227065557 58 168 6.0 15.0 0.00 0.00 0.00 86 997.7
20240227065056 58 204 4.0 13.0 0.00 0.00 0.00 86 997.6
20240227064555 58 210 3.0 15.0 0.00 0.00 0.00 85 997.7
20240227064054 58 213 11.0 22.0 0.00 0.00 0.00 85 997.8
20240227063553 58 196 6.0 13.0 0.00 0.00 0.00 85 997.9
20240227063052 59 184 7.0 14.0 0.00 0.00 0.00 84 997.8
20240227062551 59 204 9.0 13.0 0.00 0.00 0.00 84 997.9
20240227062050 59 199 5.0 26.0 0.00 0.00 0.00 83 997.9
20240227061549 59 227 5.0 16.0 0.00 0.00 0.00 83 997.8
20240227061049 59 202 8.0 18.0 0.00 0.00 0.00 83 998.3
20240227060549 59 176 6.0 26.0 0.00 0.00 0.00 83 998.1
20240227060048 59 215 7.0 19.0 0.00 0.00 0.00 82 998.2
20240227055546 59 213 12.0 19.0 0.00 0.00 0.00 82 998.1
20240227055046 59 203 6.0 17.0 0.00 0.00 0.00 81 998.1
20240227054545 59 200 9.0 24.0 0.00 0.00 0.00 81 998.1
20240227054045 59 224 10.0 17.0 0.00 0.00 0.00 81 998.4
20240227053544 59 174 4.0 23.0 0.00 0.00 0.00 80 998.3
20240227053042 59 154 6.0 19.0 0.00 0.00 0.00 79 998.3
20240227052540 59 184 6.0 15.0 0.00 0.00 0.00 79 998.3
20240227052038 59 186 8.0 15.0 0.00 0.00 0.00 78 998.4
20240227051537 59 198 11.0 26.0 0.00 0.00 0.00 77 998.5